KHDE

Brewster Field Airport

Holdrege, Nebraska, USA
METAR KHDE 221815Z AUTO 06011G15KT 10SM CLR 17/05 A3016 RMK AO2 T01730051
Observed Flight Rules
Oct-22 @ 18:15 UTC (25 minutes ago) Visual Flight Rules
Wind Visibility Clouds
60° at 11 knots
 Gusting to 15 knots
10 miles
  • Clear skies
Temperatures Readings
Current 17°C / 63°F
Dewpoint 5°C / 41°F
Humidity 45%
Altimeter 30.16" Hg
Pressure 1021 hPa
Elevation 705
METAR KHDE 221815Z AUTO 06011G15KT 10SM CLR 17/05 A3016 RMK AO2 T01730051
Observed Flight Rules
Oct-22 @ 18:15 UTC
(25 minutes ago)
VFR
Wind Visibility
60° at 11 knots
 Gusting to 15 knots
10 miles
Clouds
  • Clear skies
Temperature Dewpoint
17°C / 63°F 5°C / 41°F
Humidity Altimeter Pressure
45% 30.16" Hg 1021 hPa